Airport View

Enter ICAO identifier to see the current METAR for that AWOS.

KFNL for example

KSLI 011058Z AUTO 19003KT 10SM OVC010 20/18 A2991 RMK AO2 SLP131 T01980178

1 Aug 2014 11:49

Other Area AWOS: KLGB - KFUL - KSNA - KTOA

TAF AMD KSLI 0110/0211 VRB06KT 9999 BKN009 QNH2989INS TEMPO 0110/0115 SCT009 BECMG 0114/0115 VRB06KT 4800 BR SCT003 BKN007 QNH2988INS BECMG 0115/0116 VRB06KT 9999 NSW FEW007 QNH2985INS BECMG 0205/0206 VRB06KT 9999 FEW006 SCT009 QNH2990INS BECMG 0210/0211 VRB06KT 9999 SCT003 BKN009 QNH2990INS TX29/0123Z TN17/0112Z AMD 011005